Time;durP1;ratioP1;P1;durP2;ratioP2;P2;SDS_P1;SDS_P2;PMS_P1;PMS_P2;Temp;Humidity;BMP_temperature;BMP_pressure;BME280_temperature;BME280_humidity;BME280_pressure;Samples;Min_cycle;Max_cycle;Signal;HPM_P1;HPM_P2
2022/09/26 00:00:41;;;;;;;0.50;0.50;;;12.00;99.90;;;;;;5037113;28;20431;-68
2022/09/26 00:03:30;;;;;;;0.40;0.40;;;12.00;99.90;;;;;;5031909;28;20428;-68
2022/09/26 00:06:19;;;;;;;0.40;0.40;;;11.90;99.90;;;;;;5033043;28;20461;-67
2022/09/26 00:09:07;;;;;;;0.50;0.40;;;11.90;99.90;;;;;;5031572;28;20975;-68
2022/09/26 00:11:56;;;;;;;0.40;0.40;;;11.90;99.90;;;;;;5032848;28;20432;-68
2022/09/26 00:14:44;;;;;;;0.40;0.40;;;11.90;99.90;;;;;;5032777;28;20460;-68
2022/09/26 00:17:32;;;;;;;0.40;0.40;;;11.80;99.90;;;;;;5032278;28;20508;-68
2022/09/26 00:20:21;;;;;;;0.40;0.40;;;11.80;99.90;;;;;;5033033;28;20516;-68
2022/09/26 00:23:09;;;;;;;0.50;0.50;;;11.70;99.90;;;;;;5032744;28;20941;-68
2022/09/26 00:25:58;;;;;;;0.40;0.40;;;11.50;99.90;;;;;;5035912;28;20535;-68
2022/09/26 00:28:46;;;;;;;0.63;0.63;;;11.50;99.90;;;;;;5035455;28;20457;-69
2022/09/26 00:31:36;;;;;;;0.40;0.40;;;11.40;99.90;;;;;;5035330;28;20432;-69
2022/09/26 00:34:24;;;;;;;0.40;0.40;;;11.30;99.90;;;;;;5037288;28;20441;-66
2022/09/26 00:37:14;;;;;;;0.40;0.40;;;11.20;99.90;;;;;;5035988;28;20483;-67
2022/09/26 00:40:02;;;;;;;0.40;0.40;;;11.20;99.90;;;;;;5036245;28;20507;-67
2022/09/26 00:42:50;;;;;;;0.50;0.50;;;11.10;99.90;;;;;;5037233;28;20559;-67
2022/09/26 00:45:38;;;;;;;3.23;0.93;;;11.00;99.90;;;;;;5036934;28;20453;-68
2022/09/26 00:48:27;;;;;;;1.00;0.70;;;11.00;99.90;;;;;;5036794;28;20464;-67
2022/09/26 00:51:15;;;;;;;0.40;0.40;;;11.00;99.90;;;;;;5036546;28;20571;-66
2022/09/26 00:54:10;;;;;;;0.40;0.40;;;11.00;99.90;;;;;;5035816;28;20568;-66
2022/09/26 00:57:03;;;;;;;0.40;0.40;;;11.00;99.90;;;;;;5036486;28;20500;-66
2022/09/26 00:59:56;;;;;;;0.40;0.40;;;11.10;99.90;;;;;;5035435;28;20465;-66
2022/09/26 01:02:47;;;;;;;0.40;0.40;;;11.10;99.90;;;;;;5035428;28;20504;-67
2022/09/26 01:05:36;;;;;;;0.40;0.40;;;11.20;99.90;;;;;;5036217;28;20444;-67
2022/09/26 01:08:31;;;;;;;0.40;0.40;;;11.30;99.90;;;;;;5037622;28;20906;-67
2022/09/26 01:11:22;;;;;;;0.40;0.40;;;11.30;99.90;;;;;;5036313;28;20460;-67
2022/09/26 01:14:12;;;;;;;0.40;0.40;;;11.40;99.90;;;;;;5035459;28;20846;-67
2022/09/26 01:17:02;;;;;;;0.40;0.40;;;11.40;99.90;;;;;;5069155;23;20494;-67
2022/09/26 01:20:16;;;;;;;0.40;0.40;;;11.50;99.90;;;;;;5057493;28;20423;-68
2022/09/26 01:23:47;;;;;;;0.40;0.40;;;11.50;99.90;;;;;;5054958;28;20515;-68
2022/09/26 01:27:09;;;;;;;0.40;0.40;;;11.50;99.90;;;;;;5056292;28;20481;-67
2022/09/26 01:30:14;;;;;;;0.40;0.40;;;11.50;99.90;;;;;;5056439;28;20416;-70
2022/09/26 01:33:30;;;;;;;0.40;0.40;;;11.50;99.90;;;;;;5056554;28;20860;-67
2022/09/26 01:36:35;;;;;;;0.40;0.40;;;11.50;99.90;;;;;;5055914;28;20987;-67
2022/09/26 01:39:39;;;;;;;0.50;0.50;;;11.50;99.90;;;;;;5056657;28;20515;-68
2022/09/26 01:42:40;;;;;;;0.40;0.40;;;11.50;99.90;;;;;;5056423;28;20946;-67
2022/09/26 01:45:39;;;;;;;0.40;0.40;;;11.60;99.90;;;;;;5056013;28;20452;-67
2022/09/26 01:48:33;;;;;;;0.40;0.40;;;11.60;99.90;;;;;;5057293;28;20495;-67
2022/09/26 01:51:28;;;;;;;0.40;0.40;;;11.60;99.90;;;;;;5057230;28;20569;-68
2022/09/26 01:54:18;;;;;;;0.70;0.70;;;11.60;99.90;;;;;;5056991;28;20918;-69
2022/09/26 01:57:13;;;;;;;0.40;0.40;;;11.60;99.90;;;;;;5055456;28;20869;-67
2022/09/26 02:00:05;;;;;;;0.40;0.40;;;11.60;99.90;;;;;;5044414;28;20532;-68
2022/09/26 02:02:56;;;;;;;0.40;0.40;;;11.60;99.90;;;;;;5054703;28;20547;-67
2022/09/26 02:05:51;;;;;;;0.40;0.40;;;11.60;99.90;;;;;;5054593;28;20964;-68
2022/09/26 02:08:41;;;;;;;0.40;0.40;;;11.60;99.90;;;;;;5054959;28;21042;-68
2022/09/26 02:11:29;;;;;;;0.40;0.40;;;11.60;99.90;;;;;;5056026;28;20420;-67
2022/09/26 02:14:21;;;;;;;0.40;0.40;;;11.60;99.90;;;;;;5055551;28;20932;-67
2022/09/26 02:17:12;;;;;;;0.40;0.40;;;11.60;99.90;;;;;;5054284;28;20547;-67
2022/09/26 02:20:09;;;;;;;0.40;0.40;;;11.60;99.90;;;;;;5056010;28;20558;-68
2022/09/26 02:22:58;;;;;;;0.40;0.40;;;11.60;99.90;;;;;;5054709;28;20483;-68
2022/09/26 02:25:47;;;;;;;0.40;0.40;;;11.60;99.90;;;;;;5054104;28;20506;-67
2022/09/26 02:28:35;;;;;;;0.40;0.40;;;11.60;99.90;;;;;;5053955;28;20468;-68
2022/09/26 02:31:27;;;;;;;0.40;0.40;;;11.60;99.90;;;;;;5054088;28;21074;-69
2022/09/26 02:34:15;;;;;;;0.50;0.50;;;11.60;99.90;;;;;;5054595;28;20436;-67
2022/09/26 02:37:05;;;;;;;0.40;0.40;;;11.60;99.90;;;;;;5054635;28;20444;-68
2022/09/26 02:39:54;;;;;;;0.60;0.60;;;11.60;99.90;;;;;;5054367;28;20452;-69
2022/09/26 02:42:51;;;;;;;0.40;0.40;;;11.60;99.90;;;;;;5054497;28;20462;-68
2022/09/26 02:45:45;;;;;;;0.40;0.40;;;11.60;99.90;;;;;;5054437;28;20463;-67
2022/09/26 02:48:48;;;;;;;0.40;0.40;;;11.60;99.90;;;;;;5053807;28;20472;-66
2022/09/26 02:51:54;;;;;;;0.40;0.40;;;11.60;99.90;;;;;;5054271;28;20485;-67
2022/09/26 02:54:53;;;;;;;0.40;0.40;;;11.50;99.90;;;;;;5053479;28;20470;-68
2022/09/26 02:57:49;;;;;;;0.40;0.40;;;11.40;99.90;;;;;;5053690;28;20427;-67
2022/09/26 03:00:52;;;;;;;0.40;0.40;;;11.30;99.90;;;;;;5053477;28;20501;-68
2022/09/26 03:03:47;;;;;;;0.40;0.40;;;11.30;99.90;;;;;;5054505;28;20499;-69
2022/09/26 03:06:39;;;;;;;0.40;0.40;;;11.20;99.90;;;;;;5054982;28;20553;-68
2022/09/26 03:09:29;;;;;;;0.50;0.50;;;11.10;99.90;;;;;;5052875;28;20560;-67
2022/09/26 03:12:20;;;;;;;0.50;0.50;;;11.00;99.90;;;;;;5054332;28;20481;-68
2022/09/26 03:15:10;;;;;;;0.80;0.80;;;10.90;99.90;;;;;;5052929;28;20439;-67
2022/09/26 03:18:00;;;;;;;0.40;0.40;;;10.90;99.90;;;;;;5053144;28;20467;-68
2022/09/26 03:20:49;;;;;;;0.50;0.50;;;10.80;99.90;;;;;;5054518;28;20474;-68
2022/09/26 03:23:37;;;;;;;0.40;0.40;;;10.80;99.90;;;;;;5051924;28;20421;-67
2022/09/26 03:26:28;;;;;;;0.40;0.40;;;10.80;99.90;;;;;;5053360;28;20479;-68
2022/09/26 03:29:19;;;;;;;0.50;0.50;;;10.80;99.90;;;;;;5052205;28;20543;-68
2022/09/26 03:32:07;;;;;;;0.40;0.40;;;10.90;99.90;;;;;;5052813;28;20428;-69
2022/09/26 03:34:55;;;;;;;0.40;0.40;;;11.00;99.90;;;;;;5053033;28;20439;-67
2022/09/26 03:37:43;;;;;;;0.40;0.40;;;11.00;99.90;;;;;;5052634;28;20420;-67
2022/09/26 03:40:31;;;;;;;0.40;0.40;;;11.10;99.90;;;;;;5052863;28;20505;-68
2022/09/26 03:43:23;;;;;;;0.40;0.40;;;11.00;99.90;;;;;;5052935;28;20514;-67
2022/09/26 03:46:14;;;;;;;0.40;0.40;;;11.10;99.90;;;;;;5052910;28;20514;-66
2022/09/26 03:49:02;;;;;;;0.40;0.40;;;11.10;99.90;;;;;;5052392;28;20471;-67
2022/09/26 03:51:51;;;;;;;0.40;0.40;;;11.00;99.90;;;;;;5053468;28;20506;-66
2022/09/26 03:54:39;;;;;;;0.40;0.40;;;11.00;99.90;;;;;;5051794;28;20462;-68
2022/09/26 03:57:27;;;;;;;0.40;0.40;;;10.90;99.90;;;;;;5052196;28;20428;-68
2022/09/26 04:00:16;;;;;;;0.70;0.70;;;10.80;99.90;;;;;;5051558;28;20528;-67
2022/09/26 04:03:06;;;;;;;0.40;0.40;;;10.70;99.90;;;;;;5052813;28;20562;-67
2022/09/26 04:05:54;;;;;;;0.40;0.40;;;10.60;99.90;;;;;;5052566;28;20541;-69
2022/09/26 04:08:42;;;;;;;0.40;0.40;;;10.50;99.90;;;;;;5053276;28;20567;-68
2022/09/26 04:11:30;;;;;;;0.40;0.40;;;10.40;99.90;;;;;;5052198;28;20633;-67
2022/09/26 04:14:19;;;;;;;0.40;0.40;;;10.30;99.90;;;;;;5052623;28;20490;-69
2022/09/26 04:17:07;;;;;;;0.40;0.40;;;10.20;99.90;;;;;;5053133;28;20541;-68
2022/09/26 04:19:56;;;;;;;0.40;0.40;;;10.10;99.90;;;;;;5051503;28;20502;-68
2022/09/26 04:22:44;;;;;;;0.40;0.40;;;10.00;99.90;;;;;;5052779;28;20478;-69
2022/09/26 04:25:36;;;;;;;0.40;0.40;;;9.90;99.90;;;;;;5052855;28;20534;-68
2022/09/26 04:28:24;;;;;;;0.40;0.40;;;9.90;99.90;;;;;;5053029;28;21058;-68
2022/09/26 04:31:13;;;;;;;0.40;0.40;;;9.80;99.90;;;;;;5051845;28;20942;-68
2022/09/26 04:34:01;;;;;;;0.40;0.40;;;9.80;99.90;;;;;;5052542;28;20948;-67
2022/09/26 04:36:51;;;;;;;0.40;0.40;;;9.70;99.90;;;;;;5051979;28;20494;-68
2022/09/26 04:39:40;;;;;;;0.40;0.40;;;9.70;99.90;;;;;;5052104;28;20844;-67
2022/09/26 04:42:32;;;;;;;0.40;0.40;;;9.60;99.90;;;;;;5052466;28;21158;-67
2022/09/26 04:45:20;;;;;;;0.40;0.40;;;9.60;99.90;;;;;;5051797;28;20521;-68
2022/09/26 04:48:09;;;;;;;0.40;0.40;;;9.60;99.90;;;;;;5052596;28;20428;-68
2022/09/26 04:50:57;;;;;;;0.40;0.40;;;9.50;99.90;;;;;;5051760;28;20551;-70
2022/09/26 04:53:47;;;;;;;0.40;0.40;;;9.50;99.90;;;;;;5052363;28;20469;-68
2022/09/26 04:56:35;;;;;;;0.40;0.40;;;9.50;99.90;;;;;;5051729;28;20527;-68
2022/09/26 04:59:23;;;;;;;0.47;0.47;;;9.50;99.90;;;;;;5051431;28;20901;-68
2022/09/26 05:02:11;;;;;;;0.40;0.40;;;9.50;99.90;;;;;;5051737;28;20506;-67
2022/09/26 05:05:00;;;;;;;0.40;0.40;;;9.50;99.90;;;;;;5051527;28;20434;-68
2022/09/26 05:07:48;;;;;;;0.40;0.40;;;9.50;99.90;;;;;;5050912;28;20504;-68
2022/09/26 05:10:37;;;;;;;0.40;0.40;;;9.40;99.90;;;;;;5053109;28;20495;-68
2022/09/26 05:13:26;;;;;;;0.40;0.40;;;9.40;99.90;;;;;;5054605;28;20448;-68
2022/09/26 05:16:14;;;;;;;0.40;0.40;;;9.40;99.90;;;;;;5055434;28;20971;-67
2022/09/26 05:19:03;;;;;;;0.40;0.40;;;9.40;99.90;;;;;;5055709;28;20443;-67
2022/09/26 05:21:51;;;;;;;0.40;0.40;;;9.50;99.90;;;;;;5055485;28;20482;-68
2022/09/26 05:27:46;;;;;;;0.40;0.40;;;9.50;99.90;;;;;;5054672;28;20420;-68
2022/09/26 05:30:35;;;;;;;0.40;0.40;;;9.50;99.90;;;;;;5054587;28;20495;-69
2022/09/26 05:33:23;;;;;;;0.40;0.40;;;9.50;99.90;;;;;;5055589;28;20478;-68
2022/09/26 05:36:12;;;;;;;0.40;0.40;;;10.00;99.90;;;;;;5053928;28;20477;-67
2022/09/26 05:39:00;;;;;;;1.37;1.37;;;10.10;99.90;;;;;;5052045;28;20517;-67
2022/09/26 05:41:47;;;;;;;0.40;0.40;;;10.10;99.90;;;;;;5053757;28;20463;-67
2022/09/26 05:44:38;;;;;;;0.40;0.40;;;10.00;99.90;;;;;;5054386;28;20929;-68
2022/09/26 05:47:30;;;;;;;0.40;0.40;;;10.10;99.90;;;;;;5055265;28;20431;-68
2022/09/26 05:50:21;;;;;;;0.40;0.40;;;10.00;99.90;;;;;;5035748;28;20658;-68
2022/09/26 05:53:09;;;;;;;0.40;0.40;;;10.00;99.90;;;;;;5035407;28;20452;-70
2022/09/26 05:55:57;;;;;;;0.40;0.40;;;10.00;99.90;;;;;;5034110;28;20465;-68
2022/09/26 05:58:46;;;;;;;0.40;0.40;;;10.10;99.90;;;;;;5047897;28;20513;-70
2022/09/26 06:01:35;;;;;;;0.40;0.40;;;10.10;99.90;;;;;;5045747;28;20496;-68
2022/09/26 06:04:24;;;;;;;0.40;0.40;;;10.10;99.90;;;;;;5035591;28;20466;-66
2022/09/26 06:07:12;;;;;;;0.40;0.40;;;10.20;99.90;;;;;;5045661;28;20483;-66
2022/09/26 06:10:00;;;;;;;0.40;0.40;;;10.20;99.90;;;;;;5055106;28;20547;-68
2022/09/26 06:12:48;;;;;;;0.40;0.40;;;10.30;99.90;;;;;;5054556;28;20960;-68
2022/09/26 06:15:38;;;;;;;0.40;0.40;;;10.30;99.90;;;;;;5054109;28;20456;-68
2022/09/26 06:18:28;;;;;;;0.40;0.40;;;10.40;99.90;;;;;;5054247;28;20425;-68
2022/09/26 06:21:17;;;;;;;0.40;0.40;;;10.40;99.90;;;;;;5053636;28;20416;-69
2022/09/26 06:24:06;;;;;;;0.40;0.40;;;10.50;99.90;;;;;;5055254;28;21048;-67
2022/09/26 06:26:54;;;;;;;0.40;0.40;;;10.50;99.90;;;;;;5048071;28;20440;-68
2022/09/26 06:29:42;;;;;;;0.40;0.40;;;10.60;99.90;;;;;;5053192;28;20590;-68
2022/09/26 06:32:30;;;;;;;0.40;0.40;;;10.70;99.90;;;;;;5054470;28;20521;-67
2022/09/26 06:35:20;;;;;;;0.40;0.40;;;10.80;99.90;;;;;;5055226;28;20444;-68
2022/09/26 06:38:08;;;;;;;0.40;0.40;;;10.90;99.90;;;;;;5054768;28;20501;-66
2022/09/26 06:40:56;;;;;;;0.40;0.40;;;11.00;99.90;;;;;;5054532;28;20412;-67
2022/09/26 06:43:45;;;;;;;0.40;0.40;;;11.10;99.90;;;;;;5055386;28;20459;-69
2022/09/26 06:46:33;;;;;;;0.40;0.40;;;11.20;99.90;;;;;;5054388;28;20436;-68
2022/09/26 06:49:21;;;;;;;0.40;0.40;;;11.40;99.90;;;;;;5055113;28;20421;-67
2022/09/26 06:52:11;;;;;;;0.60;0.60;;;11.50;99.90;;;;;;5054329;28;20525;-67
2022/09/26 06:54:59;;;;;;;0.50;0.50;;;11.60;99.90;;;;;;5054906;28;21028;-67
2022/09/26 06:57:47;;;;;;;0.40;0.40;;;11.60;99.90;;;;;;5053905;28;20431;-67
2022/09/26 07:00:35;;;;;;;0.40;0.40;;;11.70;99.90;;;;;;5054434;28;20420;-68
2022/09/26 07:03:25;;;;;;;0.50;0.50;;;11.80;99.90;;;;;;5054236;28;20424;-67
2022/09/26 07:06:13;;;;;;;0.40;0.40;;;11.80;99.90;;;;;;5054017;28;20444;-69
2022/09/26 07:09:03;;;;;;;0.40;0.40;;;11.90;99.90;;;;;;5054117;28;20424;-67
2022/09/26 07:11:58;;;;;;;0.40;0.40;;;11.90;99.90;;;;;;5055758;28;20939;-67
2022/09/26 07:15:03;;;;;;;0.40;0.40;;;12.10;99.90;;;;;;5054166;28;20427;-67
2022/09/26 07:17:52;;;;;;;0.40;0.40;;;12.10;99.90;;;;;;5074981;23;20479;-68
2022/09/26 07:20:44;;;;;;;0.40;0.40;;;12.10;99.90;;;;;;5053639;28;20502;-68
2022/09/26 07:23:32;;;;;;;0.40;0.40;;;12.20;99.90;;;;;;5053324;28;20896;-70
2022/09/26 07:26:21;;;;;;;0.40;0.40;;;12.20;99.90;;;;;;5052335;28;20525;-69
2022/09/26 07:29:10;;;;;;;0.40;0.40;;;12.30;99.90;;;;;;5052324;28;20456;-68
2022/09/26 07:31:58;;;;;;;0.40;0.40;;;12.30;99.90;;;;;;5051997;28;20468;-68
2022/09/26 07:34:47;;;;;;;0.63;0.63;;;12.40;99.90;;;;;;5052048;28;20435;-68
2022/09/26 07:37:35;;;;;;;0.40;0.40;;;12.40;99.90;;;;;;5052097;28;20445;-73
2022/09/26 07:40:23;;;;;;;0.60;0.60;;;12.50;99.90;;;;;;5052644;28;20474;-68
2022/09/26 07:43:12;;;;;;;0.40;0.40;;;12.50;99.90;;;;;;5046847;28;20437;-68
2022/09/26 07:52:32;;;;;;;0.40;0.40;;;12.70;99.90;;;;;;5052992;28;20868;-68
2022/09/26 07:55:24;;;;;;;0.40;0.40;;;12.80;99.90;;;;;;5032566;28;20920;-68
2022/09/26 07:58:13;;;;;;;0.40;0.40;;;12.90;99.90;;;;;;5033198;28;20440;-68
2022/09/26 08:01:02;;;;;;;0.40;0.40;;;12.90;99.90;;;;;;5034442;28;20507;-69
2022/09/26 08:03:56;;;;;;;0.40;0.40;;;13.00;99.90;;;;;;5033826;28;20852;-70
2022/09/26 08:06:44;;;;;;;0.50;0.50;;;13.00;99.90;;;;;;5034517;28;20449;-70
2022/09/26 08:09:32;;;;;;;0.40;0.40;;;13.10;99.90;;;;;;5032857;28;20527;-68
2022/09/26 08:12:21;;;;;;;0.40;0.40;;;13.20;99.90;;;;;;5032568;28;20476;-68
2022/09/26 08:15:11;;;;;;;0.40;0.40;;;13.30;99.90;;;;;;5034065;28;20559;-68
2022/09/26 08:17:59;;;;;;;0.40;0.40;;;13.40;99.90;;;;;;5032911;28;20511;-68
2022/09/26 08:20:47;;;;;;;0.40;0.40;;;13.50;99.90;;;;;;5043770;28;20562;-68
2022/09/26 08:23:35;;;;;;;0.60;0.57;;;13.60;99.90;;;;;;5052566;28;20519;-68
2022/09/26 08:26:24;;;;;;;0.40;0.40;;;13.60;99.90;;;;;;5039986;28;20473;-70
2022/09/26 08:29:12;;;;;;;0.60;0.60;;;13.60;99.90;;;;;;5033247;28;20502;-70
2022/09/26 08:32:02;;;;;;;0.40;0.40;;;13.60;99.90;;;;;;5032261;28;20472;-68
2022/09/26 08:34:51;;;;;;;0.40;0.40;;;13.70;99.90;;;;;;5045962;28;20425;-68
2022/09/26 08:37:39;;;;;;;0.40;0.40;;;13.80;99.90;;;;;;5051740;28;20932;-68
2022/09/26 08:40:35;;;;;;;0.40;0.40;;;13.90;99.90;;;;;;5052089;28;20463;-68
2022/09/26 08:43:39;;;;;;;0.40;0.40;;;14.00;99.90;;;;;;5051466;28;20420;-68
2022/09/26 08:46:48;;;;;;;0.40;0.40;;;14.00;99.90;;;;;;5055604;28;20537;-68
2022/09/26 08:49:58;;;;;;;0.40;0.40;;;14.10;99.90;;;;;;5049977;28;20432;-70
2022/09/26 08:52:53;;;;;;;0.40;0.40;;;14.20;99.90;;;;;;5054265;28;20463;-68
2022/09/26 08:55:44;;;;;;;0.40;0.40;;;14.30;99.90;;;;;;5057386;28;20447;-69
2022/09/26 08:58:38;;;;;;;0.50;0.50;;;14.30;99.90;;;;;;5037607;28;20514;-68
2022/09/26 09:01:30;;;;;;;0.40;0.40;;;14.40;99.90;;;;;;5045526;28;20475;-72
2022/09/26 09:04:23;;;;;;;0.40;0.40;;;14.50;99.90;;;;;;5066468;28;20452;-70
2022/09/26 09:07:20;;;;;;;0.40;0.40;;;14.60;99.90;;;;;;5056694;28;20445;-70
2022/09/26 09:10:16;;;;;;;0.40;0.40;;;14.80;99.90;;;;;;5046286;28;20471;-68
2022/09/26 09:13:17;;;;;;;0.40;0.40;;;14.90;99.90;;;;;;5047711;28;20456;-68
2022/09/26 09:16:22;;;;;;;0.40;0.40;;;15.10;99.90;;;;;;5050435;28;20326;-70
2022/09/26 09:19:20;;;;;;;0.40;0.40;;;15.20;99.90;;;;;;5049048;28;20442;-73
2022/09/26 09:22:27;;;;;;;0.40;0.40;;;15.20;99.90;;;;;;5046425;28;20456;-70
2022/09/26 09:25:19;;;;;;;0.40;0.40;;;15.20;99.90;;;;;;5050007;28;20678;-68
2022/09/26 09:28:16;;;;;;;0.40;0.40;;;15.30;99.90;;;;;;5047588;28;20519;-69
2022/09/26 09:31:09;;;;;;;0.40;0.40;;;15.40;99.90;;;;;;5036382;28;20459;-68
2022/09/26 09:34:02;;;;;;;0.50;0.50;;;15.50;99.90;;;;;;5038757;28;20686;-70
2022/09/26 09:36:53;;;;;;;0.40;0.40;;;15.70;99.90;;;;;;5050806;28;20233;-72
2022/09/26 09:39:46;;;;;;;0.50;0.40;;;15.90;99.90;;;;;;5047804;28;20199;-68
2022/09/26 09:42:41;;;;;;;0.40;0.40;;;16.20;99.90;;;;;;5033939;28;20471;-72
2022/09/26 09:45:31;;;;;;;0.40;0.40;;;16.70;99.90;;;;;;5042318;28;20232;-69
2022/09/26 09:48:19;;;;;;;0.40;0.40;;;17.10;99.90;;;;;;5050501;28;20233;-72
2022/09/26 09:51:29;;;;;;;0.50;0.50;;;17.40;99.90;;;;;;5040844;28;20197;-68
2022/09/26 09:54:40;;;;;;;0.40;0.40;;;17.50;99.90;;;;;;5054678;28;20202;-68
2022/09/26 09:57:52;;;;;;;0.40;0.40;;;17.50;99.90;;;;;;5053214;28;20251;-66
2022/09/26 10:00:46;;;;;;;0.40;0.40;;;17.40;99.90;;;;;;5040237;28;20210;-67
2022/09/26 10:03:47;;;;;;;0.40;0.40;;;17.20;99.90;;;;;;5044983;28;20190;-67
2022/09/26 10:06:36;;;;;;;0.40;0.40;;;17.00;99.90;;;;;;5050876;28;20649;-68
2022/09/26 10:09:39;;;;;;;0.40;0.40;;;17.10;99.90;;;;;;5045378;28;20241;-68
2022/09/26 10:12:31;;;;;;;0.40;0.40;;;17.10;99.90;;;;;;5054654;28;20624;-68
2022/09/26 10:15:26;;;;;;;0.40;0.40;;;17.20;99.90;;;;;;5053405;28;20215;-68
2022/09/26 10:18:20;;;;;;;0.40;0.40;;;17.20;99.90;;;;;;5046995;28;20604;-67
2022/09/26 10:21:17;;;;;;;0.40;0.40;;;17.30;99.90;;;;;;5041517;28;20212;-67
2022/09/26 10:24:21;;;;;;;0.40;0.40;;;17.40;99.90;;;;;;5054614;28;20267;-68
2022/09/26 10:27:15;;;;;;;0.40;0.40;;;17.50;99.90;;;;;;5046250;28;20259;-67
2022/09/26 10:30:17;;;;;;;0.40;0.40;;;17.50;99.90;;;;;;5055853;28;20466;-67
2022/09/26 10:33:24;;;;;;;0.40;0.40;;;17.50;99.90;;;;;;5055128;28;20252;-69
2022/09/26 10:36:19;;;;;;;0.40;0.40;;;17.30;99.90;;;;;;5055173;28;20783;-69
2022/09/26 10:42:24;;;;;;;0.40;0.40;;;17.20;99.90;;;;;;5053795;28;20280;-67
2022/09/26 10:45:28;;;;;;;0.40;0.40;;;17.60;99.90;;;;;;5046412;28;20216;-67
2022/09/26 10:48:20;;;;;;;0.40;0.40;;;18.10;99.90;;;;;;5044748;28;20202;-68
2022/09/26 10:51:10;;;;;;;1.48;1.38;;;18.40;99.90;;;;;;5049259;28;20202;-69
2022/09/26 10:54:03;;;;;;;0.40;0.40;;;18.60;99.90;;;;;;5068975;28;20259;-71
2022/09/26 10:56:56;;;;;;;0.40;0.40;;;18.60;99.90;;;;;;5053572;28;20218;-68
2022/09/26 10:59:46;;;;;;;0.40;0.40;;;18.70;99.90;;;;;;5061209;28;20202;-69
2022/09/26 11:02:36;;;;;;;0.40;0.40;;;18.70;99.90;;;;;;5060384;28;20285;-67
2022/09/26 11:08:34;;;;;;;0.55;0.55;;;18.70;99.90;;;;;;5054272;28;20193;-67
2022/09/26 11:11:23;;;;;;;0.40;0.40;;;18.60;99.90;;;;;;5055296;28;20308;-68
2022/09/26 11:14:23;;;;;;;0.40;0.40;;;18.70;99.90;;;;;;5054128;28;20221;-67
2022/09/26 11:17:18;;;;;;;0.40;0.40;;;18.70;99.90;;;;;;5054924;28;20256;-67
2022/09/26 11:20:09;;;;;;;0.40;0.40;;;18.70;99.90;;;;;;5054147;28;20662;-67
2022/09/26 11:23:10;;;;;;;0.40;0.40;;;18.70;99.90;;;;;;5054000;28;20307;-70
2022/09/26 11:26:11;;;;;;;0.80;0.80;;;18.60;99.90;;;;;;5053856;28;20298;-69
2022/09/26 11:29:10;;;;;;;0.40;0.40;;;18.50;99.90;;;;;;5053619;28;20750;-69
2022/09/26 11:31:58;;;;;;;0.40;0.40;;;18.40;99.90;;;;;;5052980;28;20278;-69
2022/09/26 11:34:47;;;;;;;0.40;0.40;;;18.30;99.90;;;;;;5052102;28;20198;-69
2022/09/26 11:38:04;;;;;;;0.40;0.40;;;18.20;99.90;;;;;;5053131;28;20264;-69
2022/09/26 11:41:06;;;;;;;0.40;0.40;;;18.50;99.90;;;;;;5052010;28;20291;-68
2022/09/26 11:44:05;;;;;;;0.40;0.40;;;18.50;99.90;;;;;;5054040;28;20244;-68
2022/09/26 11:47:10;;;;;;;0.40;0.40;;;18.20;99.90;;;;;;5052476;28;20253;-68
2022/09/26 11:50:19;;;;;;;0.40;0.40;;;18.00;99.90;;;;;;5052135;28;20205;-70
2022/09/26 11:53:35;;;;;;;0.50;0.50;;;18.00;99.90;;;;;;5052757;28;20314;-68
2022/09/26 11:56:37;;;;;;;0.40;0.40;;;18.10;99.90;;;;;;5029520;28;20221;-68
2022/09/26 11:59:39;;;;;;;0.40;0.40;;;18.20;99.90;;;;;;5033046;28;20200;-68
2022/09/26 12:02:41;;;;;;;0.40;0.40;;;18.40;99.90;;;;;;5033289;28;20360;-68
2022/09/26 12:05:44;;;;;;;0.40;0.40;;;18.40;99.90;;;;;;5035063;28;20202;-68
2022/09/26 12:08:48;;;;;;;0.40;0.40;;;18.30;99.90;;;;;;5033653;28;20205;-69
2022/09/26 12:11:45;;;;;;;0.40;0.40;;;17.90;99.90;;;;;;5034330;28;20206;-68
2022/09/26 12:14:45;;;;;;;0.40;0.40;;;17.60;99.90;;;;;;5034018;28;20276;-68
2022/09/26 12:17:51;;;;;;;0.40;0.40;;;17.40;99.90;;;;;;5032434;28;20228;-69
2022/09/26 12:20:49;;;;;;;0.40;0.40;;;17.30;99.90;;;;;;5036468;28;20706;-70
2022/09/26 12:23:45;;;;;;;0.40;0.40;;;17.30;99.90;;;;;;5045405;28;20208;-68
2022/09/26 12:26:44;;;;;;;0.40;0.40;;;17.60;99.90;;;;;;5051305;28;20279;-71
2022/09/26 12:29:37;;;;;;;0.40;0.40;;;18.00;99.90;;;;;;5053729;28;20206;-68
2022/09/26 12:32:41;;;;;;;0.40;0.40;;;18.60;99.90;;;;;;5044139;28;20197;-68
2022/09/26 12:35:43;;;;;;;0.40;0.40;;;19.30;99.90;;;;;;5038355;28;20239;-68
2022/09/26 12:38:53;;;;;;;0.40;0.40;;;19.60;99.90;;;;;;5036268;28;20213;-68
2022/09/26 12:42:01;;;;;;;0.50;0.50;;;19.80;99.90;;;;;;5048845;28;20616;-72
2022/09/26 12:45:05;;;;;;;0.65;0.60;;;19.70;99.90;;;;;;5043501;28;20245;-68
2022/09/26 12:48:17;;;;;;;0.40;0.40;;;19.60;99.90;;;;;;5047639;28;20305;-68
2022/09/26 12:51:18;;;;;;;0.40;0.40;;;19.70;99.90;;;;;;5036370;28;20213;-68
2022/09/26 12:54:33;;;;;;;0.40;0.40;;;20.00;99.90;;;;;;5036081;28;20368;-71
2022/09/26 12:57:31;;;;;;;0.40;0.40;;;20.30;99.90;;;;;;5041821;28;20705;-68
2022/09/26 13:00:22;;;;;;;0.40;0.40;;;20.50;99.90;;;;;;5050092;28;20229;-69
2022/09/26 13:03:26;;;;;;;0.40;0.40;;;20.70;99.90;;;;;;5058211;28;20724;-68
2022/09/26 13:06:46;;;;;;;0.45;0.45;;;20.80;99.90;;;;;;5036498;28;20238;-69
2022/09/26 13:10:12;;;;;;;0.40;0.40;;;20.50;99.90;;;;;;5038203;28;20240;-68
2022/09/26 13:13:26;;;;;;;0.40;0.40;;;20.50;99.90;;;;;;5055151;28;20213;-68
2022/09/26 13:16:24;;;;;;;0.40;0.40;;;20.50;99.90;;;;;;5040238;28;20290;-67
2022/09/26 13:19:22;;;;;;;0.40;0.40;;;20.50;99.90;;;;;;5044258;28;20198;-68
2022/09/26 13:22:24;;;;;;;0.40;0.40;;;20.50;99.90;;;;;;5040425;28;20693;-68
2022/09/26 13:25:18;;;;;;;0.40;0.40;;;20.20;99.90;;;;;;5069720;23;20255;-66
2022/09/26 13:28:14;;;;;;;0.40;0.40;;;20.10;99.90;;;;;;5055085;28;20205;-66
2022/09/26 13:31:05;;;;;;;0.40;0.40;;;19.80;99.90;;;;;;5052810;28;20816;-67
2022/09/26 13:33:58;;;;;;;0.40;0.40;;;19.70;99.90;;;;;;5052835;28;20248;-71
2022/09/26 13:36:48;;;;;;;0.50;0.50;;;19.50;99.90;;;;;;5053996;28;20284;-66
2022/09/26 13:39:47;;;;;;;0.40;0.40;;;19.20;99.90;;;;;;5054240;28;20224;-66
2022/09/26 13:42:42;;;;;;;0.50;0.50;;;18.80;99.90;;;;;;5053464;28;20232;-66
2022/09/26 13:45:49;;;;;;;0.40;0.40;;;18.50;99.90;;;;;;5053845;28;20302;-67
2022/09/26 13:48:50;;;;;;;0.40;0.40;;;18.30;99.90;;;;;;5044342;28;20582;-66
2022/09/26 13:51:44;;;;;;;0.40;0.40;;;19.00;99.90;;;;;;5024026;28;20336;-66
2022/09/26 13:54:55;;;;;;;0.40;0.40;;;19.60;99.90;;;;;;5029155;28;20576;-66
2022/09/26 13:57:51;;;;;;;0.40;0.40;;;19.50;99.90;;;;;;5044757;28;20335;-66
2022/09/26 14:00:47;;;;;;;0.40;0.40;;;19.20;99.90;;;;;;5053456;28;20264;-66
2022/09/26 14:03:41;;;;;;;0.40;0.40;;;19.00;99.90;;;;;;5053645;28;20693;-67
2022/09/26 14:06:32;;;;;;;0.40;0.40;;;18.70;99.90;;;;;;5049395;28;20620;-67
2022/09/26 14:09:24;;;;;;;0.50;0.50;;;18.50;99.90;;;;;;5032604;28;20237;-66
2022/09/26 14:12:33;;;;;;;0.40;0.40;;;18.20;99.90;;;;;;5050530;28;20287;-66
2022/09/26 14:15:23;;;;;;;0.40;0.40;;;18.10;99.90;;;;;;5025494;28;20715;-67
2022/09/26 14:18:31;;;;;;;0.40;0.40;;;18.00;99.90;;;;;;5035932;28;20333;-68
2022/09/26 14:21:38;;;;;;;4.25;0.95;;;17.90;99.90;;;;;;5034132;28;20201;-67
2022/09/26 14:24:35;;;;;;;0.40;0.40;;;17.80;99.90;;;;;;5038303;28;20311;-66
2022/09/26 14:27:42;;;;;;;0.45;0.45;;;17.90;99.90;;;;;;5053677;28;20350;-67
2022/09/26 14:30:32;;;;;;;0.50;0.50;;;18.00;99.90;;;;;;5041927;28;20286;-67
2022/09/26 14:33:23;;;;;;;0.40;0.40;;;18.10;99.90;;;;;;5051677;28;20224;-68
2022/09/26 14:36:25;;;;;;;0.40;0.40;;;18.20;99.90;;;;;;5050137;28;20285;-67
2022/09/26 14:39:40;;;;;;;0.98;0.98;;;18.40;99.90;;;;;;5044937;28;20250;-67
2022/09/26 14:42:31;;;;;;;0.40;0.40;;;18.70;99.90;;;;;;5039455;28;20198;-67
2022/09/26 14:45:23;;;;;;;0.40;0.40;;;18.80;99.90;;;;;;5044070;28;20695;-68
2022/09/26 14:48:18;;;;;;;0.40;0.40;;;18.70;99.90;;;;;;5037199;28;20256;-68
2022/09/26 14:51:24;;;;;;;0.40;0.40;;;18.50;99.90;;;;;;5044264;28;20285;-67
2022/09/26 14:54:21;;;;;;;0.40;0.40;;;18.20;99.90;;;;;;5040045;28;20693;-66
2022/09/26 14:57:19;;;;;;;0.40;0.40;;;18.10;99.90;;;;;;5046140;28;20682;-68
2022/09/26 15:00:34;;;;;;;0.40;0.40;;;18.20;99.90;;;;;;5040991;28;20209;-67
2022/09/26 15:03:23;;;;;;;0.40;0.40;;;18.50;99.90;;;;;;5048460;28;20681;-67
2022/09/26 15:06:14;;;;;;;0.40;0.40;;;18.40;99.90;;;;;;5043129;28;20194;-67
2022/09/26 15:09:09;;;;;;;0.40;0.40;;;18.50;99.90;;;;;;5037055;28;20230;-68
2022/09/26 15:11:59;;;;;;;0.40;0.40;;;18.70;99.90;;;;;;5033128;28;20202;-67
2022/09/26 15:14:52;;;;;;;0.40;0.40;;;19.00;99.90;;;;;;5034074;28;20222;-68
2022/09/26 15:17:45;;;;;;;0.40;0.40;;;19.50;99.90;;;;;;5033176;28;20576;-68
2022/09/26 15:20:39;;;;;;;0.50;0.50;;;19.70;99.90;;;;;;5035095;28;20563;-67
2022/09/26 15:23:32;;;;;;;0.40;0.40;;;19.00;99.90;;;;;;5043266;28;20221;-67